createdAt,value
2023-11-23T00:02:56.647Z,8.10
2023-11-23T00:08:01.740Z,8.10
2023-11-23T00:13:05.356Z,8.10
2023-11-23T00:18:10.380Z,8.10
2023-11-23T00:23:14.135Z,8.10
2023-11-23T00:28:17.720Z,8.10
2023-11-23T00:33:22.900Z,8.10
2023-11-23T00:38:26.563Z,8.10
2023-11-23T00:43:30.078Z,8.10
2023-11-23T00:48:35.113Z,8.10
2023-11-23T00:53:39.412Z,8.20
2023-11-23T00:58:42.967Z,8.20
2023-11-23T01:03:48.136Z,8.20
2023-11-23T01:08:51.803Z,8.20
2023-11-23T01:13:55.435Z,8.20
2023-11-23T01:19:00.457Z,8.10
2023-11-23T01:24:04.822Z,8.10
2023-11-23T01:29:08.601Z,8.10
2023-11-23T01:34:13.719Z,8.10
2023-11-23T01:39:18.551Z,8.10
2023-11-23T01:44:23.116Z,8.10
2023-11-23T01:49:29.254Z,8.10
2023-11-23T01:54:33.098Z,8.10
2023-11-23T01:59:37.333Z,8.10
2023-11-23T02:04:42.354Z,8.10
2023-11-23T02:09:46.158Z,8.20
2023-11-23T02:14:51.698Z,8.20
2023-11-23T02:19:56.923Z,8.20
2023-11-23T02:25:01.932Z,8.20
2023-11-23T02:30:07.388Z,8.20
2023-11-23T02:35:11.233Z,8.20
2023-11-23T02:40:16.382Z,8.30
2023-11-23T02:45:20.262Z,8.20
2023-11-23T02:50:23.826Z,8.20
2023-11-23T02:55:28.853Z,8.30
2023-11-23T03:00:34.494Z,8.30
2023-11-23T03:05:40.109Z,8.30
2023-11-23T03:10:45.737Z,8.40
2023-11-23T03:15:52.139Z,8.40
2023-11-23T03:20:55.809Z,8.40
2023-11-23T03:26:00.790Z,8.40
2023-11-23T03:31:05.081Z,8.50
2023-11-23T03:36:09.452Z,8.50
2023-11-23T03:41:14.425Z,8.60
2023-11-23T03:46:18.083Z,8.60
2023-11-23T03:51:22.450Z,8.60
2023-11-23T03:56:27.425Z,8.70
2023-11-23T04:01:31.072Z,8.70
2023-11-23T04:06:34.650Z,8.70
2023-11-23T04:11:39.686Z,8.70
2023-11-23T04:16:43.431Z,8.70
2023-11-23T04:21:47.624Z,8.80
2023-11-23T04:26:55.551Z,8.80
2023-11-23T04:31:59.146Z,8.80
2023-11-23T04:37:02.670Z,8.80
2023-11-23T04:42:08.646Z,8.90
2023-11-23T04:47:12.513Z,8.90
2023-11-23T04:52:16.052Z,8.90
2023-11-23T04:57:21.035Z,9.00
2023-11-23T05:02:25.088Z,9.10
2023-11-23T05:07:28.828Z,9.10
2023-11-23T05:12:34.658Z,9.10
2023-11-23T05:17:38.393Z,9.20
2023-11-23T05:22:41.986Z,9.20
2023-11-23T05:27:46.897Z,9.30
2023-11-23T05:32:51.469Z,9.30
2023-11-23T05:37:55.015Z,9.30
2023-11-23T05:43:05.410Z,9.30
2023-11-23T05:48:10.540Z,9.40
2023-11-23T05:53:14.180Z,9.30
2023-11-23T05:58:19.120Z,9.40
2023-11-23T06:03:25.063Z,9.40
2023-11-23T06:08:29.750Z,9.40
2023-11-23T06:13:34.705Z,9.40
2023-11-23T06:18:38.473Z,9.50
2023-11-23T06:23:42.102Z,9.50
2023-11-23T06:28:47.134Z,9.50
2023-11-23T06:33:50.735Z,9.60
2023-11-23T06:38:56.611Z,9.60
2023-11-23T06:44:01.615Z,9.60
2023-11-23T06:49:07.838Z,9.70
2023-11-23T06:54:12.180Z,9.70
2023-11-23T06:59:17.178Z,9.70
2023-11-23T07:04:22.603Z,9.70
2023-11-23T07:09:26.277Z,9.80
2023-11-23T07:14:31.503Z,9.80
2023-11-23T07:19:35.191Z,9.80
2023-11-23T07:24:39.181Z,9.80
2023-11-23T07:29:44.103Z,9.80
2023-11-23T07:34:48.750Z,9.90
2023-11-23T07:39:52.458Z,9.90
2023-11-23T07:44:58.466Z,9.90
2023-11-23T07:50:02.043Z,10.00
2023-11-23T07:55:07.103Z,10.00
2023-11-23T08:00:14.623Z,10.10
2023-11-23T08:05:19.013Z,10.20
2023-11-23T08:10:22.594Z,10.20
2023-11-23T08:15:27.565Z,10.20
2023-11-23T08:20:31.436Z,10.30
2023-11-23T08:25:34.952Z,10.30
2023-11-23T08:30:40.142Z,10.30
2023-11-23T08:35:43.846Z,10.30
2023-11-23T08:40:47.571Z,10.30
2023-11-23T08:45:52.527Z,10.40
2023-11-23T08:50:56.066Z,10.30
2023-11-23T08:55:59.705Z,10.40
2023-11-23T09:01:06.247Z,10.40
2023-11-23T09:06:10.752Z,10.50
2023-11-23T09:11:14.405Z,10.50
2023-11-23T09:16:19.682Z,10.50
2023-11-23T09:21:24.391Z,10.50
2023-11-23T09:26:27.905Z,10.60
2023-11-23T09:31:34.490Z,10.60
2023-11-23T09:36:40.279Z,10.70
2023-11-23T09:41:45.892Z,10.70
2023-11-23T09:46:52.179Z,10.70
2023-11-23T09:52:01.812Z,10.70
2023-11-23T09:57:06.097Z,10.70
2023-11-23T10:02:12.024Z,10.80
2023-11-23T10:07:17.551Z,10.80
2023-11-23T10:12:23.139Z,10.80
2023-11-23T10:17:28.122Z,10.80
2023-11-23T10:22:32.834Z,10.90
2023-11-23T10:27:36.891Z,10.90
2023-11-23T10:32:42.389Z,10.90
2023-11-23T10:37:46.634Z,10.90
2023-11-23T10:42:52.105Z,10.90
2023-11-23T10:47:59.553Z,10.90
2023-11-23T10:53:04.522Z,10.90
2023-11-23T10:58:11.806Z,10.90
2023-11-23T11:03:18.973Z,10.90
2023-11-23T11:08:28.165Z,10.90
2023-11-23T11:13:35.880Z,10.90
2023-11-23T11:18:40.934Z,10.90
2023-11-23T11:23:46.175Z,11.00
2023-11-23T11:28:58.743Z,11.00
2023-11-23T11:34:05.173Z,11.00
2023-11-23T11:39:11.871Z,11.00
2023-11-23T11:44:17.114Z,11.10
2023-11-23T11:49:22.004Z,11.10
2023-11-23T11:54:26.757Z,11.10
2023-11-23T11:59:31.427Z,11.20
2023-11-23T12:04:37.983Z,11.20
2023-11-23T12:09:46.429Z,11.20
2023-11-23T12:14:51.021Z,11.30
2023-11-23T12:19:57.475Z,11.30
2023-11-23T12:25:07.680Z,11.30
2023-11-23T12:30:12.890Z,11.40
2023-11-23T12:35:17.889Z,11.40
2023-11-23T12:40:22.635Z,11.50
2023-11-23T12:45:26.687Z,11.50
2023-11-23T12:50:31.651Z,11.50
2023-11-23T12:55:35.239Z,11.60
2023-11-23T13:00:39.962Z,11.60
2023-11-23T13:05:47.678Z,11.60
2023-11-23T13:10:51.480Z,11.70
2023-11-23T13:15:55.073Z,11.70
2023-11-23T13:20:59.991Z,11.70
2023-11-23T13:26:05.027Z,11.70
2023-11-23T13:31:09.513Z,11.70
2023-11-23T13:36:14.529Z,11.70
2023-11-23T13:41:18.823Z,11.80
2023-11-23T13:46:22.502Z,11.80
2023-11-23T13:51:30.311Z,11.80
2023-11-23T13:56:35.523Z,11.80
2023-11-23T14:01:39.936Z,11.90
2023-11-23T14:06:45.735Z,11.90
2023-11-23T14:11:51.660Z,11.90
2023-11-23T14:16:55.458Z,11.90
2023-11-23T14:22:01.958Z,11.90
2023-11-23T14:27:07.929Z,11.90
2023-11-23T14:32:11.479Z,12.00
2023-11-23T14:37:16.357Z,12.00
2023-11-23T14:42:19.944Z,12.00
2023-11-23T14:47:28.083Z,12.00
2023-11-23T14:52:33.336Z,12.00
2023-11-23T14:57:38.727Z,12.00
2023-11-23T15:02:43.111Z,12.00
2023-11-23T15:07:48.588Z,12.00
2023-11-23T15:12:54.171Z,12.00
2023-11-23T15:17:58.384Z,12.00
2023-11-23T15:23:04.431Z,12.00
2023-11-23T15:28:11.809Z,12.00
2023-11-23T15:33:17.608Z,12.00
2023-11-23T15:38:23.494Z,12.00
2023-11-23T15:43:27.038Z,11.90
2023-11-23T15:48:30.687Z,11.90
2023-11-23T15:53:35.653Z,11.90
2023-11-23T15:58:39.252Z,11.80
2023-11-23T16:03:42.969Z,11.80
2023-11-23T16:08:48.694Z,11.80
2023-11-23T16:13:52.766Z,11.80
2023-11-23T16:18:56.501Z,11.80
2023-11-23T16:24:01.455Z,11.80
2023-11-23T16:29:11.180Z,11.90
2023-11-23T16:34:16.782Z,11.90
2023-11-23T16:39:21.872Z,11.90
2023-11-23T16:44:25.477Z,11.90
2023-11-23T16:49:29.328Z,12.00
2023-11-23T16:54:34.335Z,12.00
2023-11-23T16:59:38.030Z,12.10
2023-11-23T17:04:41.653Z,12.10
2023-11-23T17:10:04.843Z,12.10
2023-11-23T17:15:09.457Z,12.10
2023-11-23T17:20:14.251Z,12.10
2023-11-23T17:25:21.072Z,12.10
2023-11-23T17:30:25.073Z,12.00
2023-11-23T17:35:29.230Z,12.00
2023-11-23T17:40:34.278Z,12.00
2023-11-23T17:45:37.920Z,11.90
2023-11-23T17:50:42.944Z,11.90
2023-11-23T17:55:47.959Z,11.90
2023-11-23T18:00:51.693Z,11.90
2023-11-23T18:05:55.321Z,11.80
2023-11-23T18:11:00.352Z,11.80
2023-11-23T18:16:04.367Z,11.80
2023-11-23T18:21:08.033Z,11.70
2023-11-23T18:26:15.877Z,11.70
2023-11-23T18:31:19.952Z,11.70
2023-11-23T18:36:24.036Z,11.80
2023-11-23T18:41:29.054Z,11.80
2023-11-23T18:46:32.797Z,11.80
2023-11-23T18:51:36.426Z,11.70
2023-11-23T18:56:41.411Z,11.70
2023-11-23T19:01:45.164Z,11.70
2023-11-23T19:06:50.599Z,11.60
2023-11-23T19:11:58.096Z,11.60
2023-11-23T19:17:04.803Z,11.60
2023-11-23T19:22:09.556Z,11.70
2023-11-23T19:27:15.156Z,11.60
2023-11-23T19:32:22.775Z,11.60
2023-11-23T19:37:27.074Z,11.60
2023-11-23T19:42:34.500Z,11.60
2023-11-23T19:47:38.618Z,11.60
2023-11-23T19:52:44.504Z,11.60
2023-11-23T19:57:49.666Z,11.60
2023-11-23T20:02:58.197Z,11.70
2023-11-23T20:08:01.919Z,11.70
2023-11-23T20:13:06.931Z,11.70
2023-11-23T20:18:10.642Z,11.70
2023-11-23T20:23:14.510Z,11.70
2023-11-23T20:28:19.491Z,11.70
2023-11-23T20:33:23.139Z,11.70
2023-11-23T20:38:26.768Z,11.70
2023-11-23T20:43:31.772Z,11.70
2023-11-23T20:48:37.264Z,11.70
2023-11-23T20:53:41.074Z,11.70
2023-11-23T20:58:46.653Z,11.70
2023-11-23T21:03:51.983Z,11.70
2023-11-23T21:08:56.397Z,11.70
2023-11-23T21:14:01.393Z,11.70
2023-11-23T21:19:05.111Z,11.70
2023-11-23T21:24:10.142Z,11.70
2023-11-23T21:29:15.140Z,11.70
2023-11-23T21:34:18.926Z,11.70
2023-11-23T21:39:24.426Z,11.60
2023-11-23T21:44:30.117Z,11.60
2023-11-23T21:49:33.740Z,11.60
2023-11-23T21:54:44.030Z,11.70
2023-11-23T21:59:52.473Z,11.70
2023-11-23T22:04:56.113Z,11.60
2023-11-23T22:09:59.745Z,11.60
2023-11-23T22:15:06.164Z,11.60
2023-11-23T22:20:11.017Z,11.50
2023-11-23T22:25:16.939Z,11.50
2023-11-23T22:30:23.962Z,11.50
2023-11-23T22:35:28.444Z,11.50
2023-11-23T22:40:32.480Z,11.40
2023-11-23T22:45:38.140Z,11.40
2023-11-23T22:50:41.794Z,11.40
2023-11-23T22:55:45.348Z,11.30
2023-11-23T23:00:50.292Z,11.30
2023-11-23T23:05:54.066Z,11.20
2023-11-23T23:10:58.404Z,11.10
2023-11-23T23:16:03.652Z,11.10
2023-11-23T23:21:07.839Z,11.00
2023-11-23T23:26:11.399Z,11.00
2023-11-23T23:31:16.295Z,11.00
2023-11-23T23:36:19.953Z,11.00
2023-11-23T23:41:23.689Z,11.00
2023-11-23T23:46:28.681Z,11.00
2023-11-23T23:51:33.166Z,10.90
2023-11-23T23:56:39.296Z,10.90
